sensor_id;sensor_type;location;lat;lon;timestamp;temperature;humidity
41678;DHT22;27364;49.026;8.712;2022-07-10T00:01:54;18.40;99.90
41678;DHT22;27364;49.026;8.712;2022-07-10T00:04:22;18.40;99.90
41678;DHT22;27364;49.026;8.712;2022-07-10T00:06:48;18.40;99.90
41678;DHT22;27364;49.026;8.712;2022-07-10T00:09:14;18.40;99.90
41678;DHT22;27364;49.026;8.712;2022-07-10T00:11:40;18.30;99.90
41678;DHT22;27364;49.026;8.712;2022-07-10T00:14:06;18.30;99.90
41678;DHT22;27364;49.026;8.712;2022-07-10T00:16:31;18.30;99.90
41678;DHT22;27364;49.026;8.712;2022-07-10T00:18:57;18.30;99.90
41678;DHT22;27364;49.026;8.712;2022-07-10T00:21:22;18.30;99.90
41678;DHT22;27364;49.026;8.712;2022-07-10T00:23:48;18.20;99.90
41678;DHT22;27364;49.026;8.712;2022-07-10T00:26:18;18.20;99.90
41678;DHT22;27364;49.026;8.712;2022-07-10T00:28:43;18.20;99.90
41678;DHT22;27364;49.026;8.712;2022-07-10T00:31:11;18.20;99.90
41678;DHT22;27364;49.026;8.712;2022-07-10T00:33:37;18.20;99.90
41678;DHT22;27364;49.026;8.712;2022-07-10T00:36:06;18.10;99.90
41678;DHT22;27364;49.026;8.712;2022-07-10T00:38:33;18.10;99.90
41678;DHT22;27364;49.026;8.712;2022-07-10T00:40:59;18.00;99.90
41678;DHT22;27364;49.026;8.712;2022-07-10T00:43:24;18.00;99.90
41678;DHT22;27364;49.026;8.712;2022-07-10T00:45:50;17.90;99.90
41678;DHT22;27364;49.026;8.712;2022-07-10T00:48:15;17.90;99.90
41678;DHT22;27364;49.026;8.712;2022-07-10T00:50:43;17.80;99.90
41678;DHT22;27364;49.026;8.712;2022-07-10T00:53:10;17.70;99.90
41678;DHT22;27364;49.026;8.712;2022-07-10T00:55:36;17.70;99.90
41678;DHT22;27364;49.026;8.712;2022-07-10T00:58:04;17.70;99.90
41678;DHT22;27364;49.026;8.712;2022-07-10T01:00:30;17.60;99.90
41678;DHT22;27364;49.026;8.712;2022-07-10T01:02:56;17.60;99.90
41678;DHT22;27364;49.026;8.712;2022-07-10T01:05:23;17.50;99.90
41678;DHT22;27364;49.026;8.712;2022-07-10T01:07:49;17.50;99.90
41678;DHT22;27364;49.026;8.712;2022-07-10T01:10:14;17.50;99.90
41678;DHT22;27364;49.026;8.712;2022-07-10T01:12:40;17.50;99.90
41678;DHT22;27364;49.026;8.712;2022-07-10T01:15:06;17.40;99.90
41678;DHT22;27364;49.026;8.712;2022-07-10T01:17:33;17.40;99.90
41678;DHT22;27364;49.026;8.712;2022-07-10T01:20:07;17.40;99.90
41678;DHT22;27364;49.026;8.712;2022-07-10T01:22:33;17.40;99.90
41678;DHT22;27364;49.026;8.712;2022-07-10T01:24:58;17.30;99.90
41678;DHT22;27364;49.026;8.712;2022-07-10T01:27:25;17.30;99.90
41678;DHT22;27364;49.026;8.712;2022-07-10T01:29:51;17.30;99.90
41678;DHT22;27364;49.026;8.712;2022-07-10T01:32:18;17.20;99.90
41678;DHT22;27364;49.026;8.712;2022-07-10T01:34:45;17.20;99.90
41678;DHT22;27364;49.026;8.712;2022-07-10T01:37:12;17.20;99.90
41678;DHT22;27364;49.026;8.712;2022-07-10T01:39:41;17.30;99.90
41678;DHT22;27364;49.026;8.712;2022-07-10T01:42:06;17.30;99.90
41678;DHT22;27364;49.026;8.712;2022-07-10T01:44:32;17.30;99.90
41678;DHT22;27364;49.026;8.712;2022-07-10T01:46:57;17.30;99.90
41678;DHT22;27364;49.026;8.712;2022-07-10T01:49:23;17.30;99.90
41678;DHT22;27364;49.026;8.712;2022-07-10T01:51:49;17.40;99.90
41678;DHT22;27364;49.026;8.712;2022-07-10T01:54:15;17.40;99.90
41678;DHT22;27364;49.026;8.712;2022-07-10T01:56:40;17.40;99.90
41678;DHT22;27364;49.026;8.712;2022-07-10T01:59:06;17.40;99.90
41678;DHT22;27364;49.026;8.712;2022-07-10T02:01:32;17.40;99.90
41678;DHT22;27364;49.026;8.712;2022-07-10T02:03:58;17.40;99.90
41678;DHT22;27364;49.026;8.712;2022-07-10T02:06:42;17.50;99.90
41678;DHT22;27364;49.026;8.712;2022-07-10T02:09:08;17.50;99.90
41678;DHT22;27364;49.026;8.712;2022-07-10T02:11:33;17.50;99.90
41678;DHT22;27364;49.026;8.712;2022-07-10T02:13:59;17.50;99.90
41678;DHT22;27364;49.026;8.712;2022-07-10T02:16:24;17.50;99.90
41678;DHT22;27364;49.026;8.712;2022-07-10T02:18:50;17.50;99.90
41678;DHT22;27364;49.026;8.712;2022-07-10T02:21:17;17.50;99.90
41678;DHT22;27364;49.026;8.712;2022-07-10T02:23:45;17.50;99.90
41678;DHT22;27364;49.026;8.712;2022-07-10T02:26:12;17.50;99.90
41678;DHT22;27364;49.026;8.712;2022-07-10T02:28:38;17.40;99.90
41678;DHT22;27364;49.026;8.712;2022-07-10T02:31:04;17.40;99.90
41678;DHT22;27364;49.026;8.712;2022-07-10T02:33:29;17.40;99.90
41678;DHT22;27364;49.026;8.712;2022-07-10T02:35:55;17.40;99.90
41678;DHT22;27364;49.026;8.712;2022-07-10T02:38:20;17.30;99.90
41678;DHT22;27364;49.026;8.712;2022-07-10T02:40:46;17.30;99.90
41678;DHT22;27364;49.026;8.712;2022-07-10T02:43:11;17.20;99.90
41678;DHT22;27364;49.026;8.712;2022-07-10T02:45:37;17.10;99.90
41678;DHT22;27364;49.026;8.712;2022-07-10T02:48:03;17.00;99.90
41678;DHT22;27364;49.026;8.712;2022-07-10T02:50:28;16.90;99.90
41678;DHT22;27364;49.026;8.712;2022-07-10T02:52:54;16.90;99.90
41678;DHT22;27364;49.026;8.712;2022-07-10T02:55:20;16.90;99.90
41678;DHT22;27364;49.026;8.712;2022-07-10T02:57:45;16.80;99.90
41678;DHT22;27364;49.026;8.712;2022-07-10T03:00:11;16.80;99.90
41678;DHT22;27364;49.026;8.712;2022-07-10T03:02:38;16.80;99.90
41678;DHT22;27364;49.026;8.712;2022-07-10T03:05:04;16.80;99.90
41678;DHT22;27364;49.026;8.712;2022-07-10T03:07:29;16.70;99.90
41678;DHT22;27364;49.026;8.712;2022-07-10T03:09:55;16.70;99.90
41678;DHT22;27364;49.026;8.712;2022-07-10T03:12:21;16.70;99.90
41678;DHT22;27364;49.026;8.712;2022-07-10T03:14:47;16.70;99.90
41678;DHT22;27364;49.026;8.712;2022-07-10T03:17:13;16.80;99.90
41678;DHT22;27364;49.026;8.712;2022-07-10T03:19:38;16.70;99.90
41678;DHT22;27364;49.026;8.712;2022-07-10T03:22:04;16.60;99.90
41678;DHT22;27364;49.026;8.712;2022-07-10T03:24:29;16.60;99.90
41678;DHT22;27364;49.026;8.712;2022-07-10T03:26:55;16.60;99.90
41678;DHT22;27364;49.026;8.712;2022-07-10T03:29:20;16.50;99.90
41678;DHT22;27364;49.026;8.712;2022-07-10T03:31:47;16.50;99.90
41678;DHT22;27364;49.026;8.712;2022-07-10T03:34:13;16.40;99.90
41678;DHT22;27364;49.026;8.712;2022-07-10T03:36:42;16.40;99.90
41678;DHT22;27364;49.026;8.712;2022-07-10T03:39:07;16.30;99.90
41678;DHT22;27364;49.026;8.712;2022-07-10T03:41:33;16.30;99.90
41678;DHT22;27364;49.026;8.712;2022-07-10T03:43:59;16.30;99.90
41678;DHT22;27364;49.026;8.712;2022-07-10T03:46:24;16.30;99.90
41678;DHT22;27364;49.026;8.712;2022-07-10T03:48:50;16.30;99.90
41678;DHT22;27364;49.026;8.712;2022-07-10T03:51:15;16.30;99.90
41678;DHT22;27364;49.026;8.712;2022-07-10T03:53:42;16.20;99.90
41678;DHT22;27364;49.026;8.712;2022-07-10T03:56:07;16.20;99.90
41678;DHT22;27364;49.026;8.712;2022-07-10T03:58:33;16.20;99.90
41678;DHT22;27364;49.026;8.712;2022-07-10T04:00:58;16.20;99.90
41678;DHT22;27364;49.026;8.712;2022-07-10T04:03:24;16.20;99.90
41678;DHT22;27364;49.026;8.712;2022-07-10T04:05:49;16.20;99.90
41678;DHT22;27364;49.026;8.712;2022-07-10T04:08:15;16.20;99.90
41678;DHT22;27364;49.026;8.712;2022-07-10T04:10:40;16.10;99.90
41678;DHT22;27364;49.026;8.712;2022-07-10T04:13:06;16.20;99.90
41678;DHT22;27364;49.026;8.712;2022-07-10T04:15:31;16.20;99.90
41678;DHT22;27364;49.026;8.712;2022-07-10T04:17:57;16.20;99.90
41678;DHT22;27364;49.026;8.712;2022-07-10T04:20:23;16.20;99.90
41678;DHT22;27364;49.026;8.712;2022-07-10T04:22:50;16.20;99.90
41678;DHT22;27364;49.026;8.712;2022-07-10T04:25:19;16.20;99.90
41678;DHT22;27364;49.026;8.712;2022-07-10T04:27:45;16.20;99.90
41678;DHT22;27364;49.026;8.712;2022-07-10T04:30:11;16.20;99.90
41678;DHT22;27364;49.026;8.712;2022-07-10T04:32:36;16.30;99.90
41678;DHT22;27364;49.026;8.712;2022-07-10T04:35:02;16.30;99.90
41678;DHT22;27364;49.026;8.712;2022-07-10T04:37:28;16.30;99.90
41678;DHT22;27364;49.026;8.712;2022-07-10T04:39:56;16.30;99.90
41678;DHT22;27364;49.026;8.712;2022-07-10T04:42:22;16.30;99.90
41678;DHT22;27364;49.026;8.712;2022-07-10T04:44:47;16.30;99.90
41678;DHT22;27364;49.026;8.712;2022-07-10T04:47:13;16.30;99.90
41678;DHT22;27364;49.026;8.712;2022-07-10T04:49:39;16.30;99.90
41678;DHT22;27364;49.026;8.712;2022-07-10T04:52:05;16.30;99.90
41678;DHT22;27364;49.026;8.712;2022-07-10T04:54:31;16.30;99.90
41678;DHT22;27364;49.026;8.712;2022-07-10T04:56:57;16.30;99.90
41678;DHT22;27364;49.026;8.712;2022-07-10T04:59:22;16.40;99.90
41678;DHT22;27364;49.026;8.712;2022-07-10T05:01:48;16.30;99.90
41678;DHT22;27364;49.026;8.712;2022-07-10T05:04:14;16.40;99.90
41678;DHT22;27364;49.026;8.712;2022-07-10T05:06:40;16.40;99.90
41678;DHT22;27364;49.026;8.712;2022-07-10T05:09:06;16.40;99.90
41678;DHT22;27364;49.026;8.712;2022-07-10T05:11:31;16.30;99.90
41678;DHT22;27364;49.026;8.712;2022-07-10T05:13:58;16.30;99.90
41678;DHT22;27364;49.026;8.712;2022-07-10T05:16:24;16.30;99.90
41678;DHT22;27364;49.026;8.712;2022-07-10T05:18:50;16.40;99.90
41678;DHT22;27364;49.026;8.712;2022-07-10T05:21:15;16.30;99.90
41678;DHT22;27364;49.026;8.712;2022-07-10T05:23:42;16.30;99.90
41678;DHT22;27364;49.026;8.712;2022-07-10T05:26:08;16.30;99.90
41678;DHT22;27364;49.026;8.712;2022-07-10T05:28:34;16.30;99.90
41678;DHT22;27364;49.026;8.712;2022-07-10T05:31:00;16.30;99.90
41678;DHT22;27364;49.026;8.712;2022-07-10T05:33:27;16.30;99.90
41678;DHT22;27364;49.026;8.712;2022-07-10T05:35:53;16.30;99.90
41678;DHT22;27364;49.026;8.712;2022-07-10T05:38:19;16.40;99.90
41678;DHT22;27364;49.026;8.712;2022-07-10T05:40:45;16.40;99.90
41678;DHT22;27364;49.026;8.712;2022-07-10T05:43:11;16.40;99.90
41678;DHT22;27364;49.026;8.712;2022-07-10T05:45:37;16.40;99.90
41678;DHT22;27364;49.026;8.712;2022-07-10T05:48:03;16.50;99.90
41678;DHT22;27364;49.026;8.712;2022-07-10T05:50:28;16.50;99.90
41678;DHT22;27364;49.026;8.712;2022-07-10T05:52:55;16.60;99.90
41678;DHT22;27364;49.026;8.712;2022-07-10T05:55:21;16.70;99.90
41678;DHT22;27364;49.026;8.712;2022-07-10T05:57:46;16.70;99.90
41678;DHT22;27364;49.026;8.712;2022-07-10T06:00:12;16.80;99.90
41678;DHT22;27364;49.026;8.712;2022-07-10T06:02:38;16.90;99.90
41678;DHT22;27364;49.026;8.712;2022-07-10T06:05:04;16.90;99.90
41678;DHT22;27364;49.026;8.712;2022-07-10T06:07:30;16.90;99.90
41678;DHT22;27364;49.026;8.712;2022-07-10T06:09:57;17.00;99.90
41678;DHT22;27364;49.026;8.712;2022-07-10T06:12:25;16.90;99.90
41678;DHT22;27364;49.026;8.712;2022-07-10T06:14:51;17.00;99.90
41678;DHT22;27364;49.026;8.712;2022-07-10T06:17:17;17.00;99.90
41678;DHT22;27364;49.026;8.712;2022-07-10T06:19:42;17.00;99.90
41678;DHT22;27364;49.026;8.712;2022-07-10T06:22:08;17.10;99.90
41678;DHT22;27364;49.026;8.712;2022-07-10T06:24:52;17.20;99.90
41678;DHT22;27364;49.026;8.712;2022-07-10T06:42:42;17.30;99.90
41678;DHT22;27364;49.026;8.712;2022-07-10T06:45:09;17.20;99.90
41678;DHT22;27364;49.026;8.712;2022-07-10T06:47:34;17.20;99.90
41678;DHT22;27364;49.026;8.712;2022-07-10T06:50:18;17.30;99.90
41678;DHT22;27364;49.026;8.712;2022-07-10T06:52:44;17.20;99.90
41678;DHT22;27364;49.026;8.712;2022-07-10T06:55:10;17.20;99.90
41678;DHT22;27364;49.026;8.712;2022-07-10T06:57:35;17.10;99.90
41678;DHT22;27364;49.026;8.712;2022-07-10T07:00:03;17.20;99.90
41678;DHT22;27364;49.026;8.712;2022-07-10T07:02:29;17.10;99.90
41678;DHT22;27364;49.026;8.712;2022-07-10T07:04:55;17.20;99.90
41678;DHT22;27364;49.026;8.712;2022-07-10T07:07:20;17.20;99.90
41678;DHT22;27364;49.026;8.712;2022-07-10T07:09:46;17.20;99.90
41678;DHT22;27364;49.026;8.712;2022-07-10T07:12:15;17.20;99.90
41678;DHT22;27364;49.026;8.712;2022-07-10T07:14:40;17.30;99.90
41678;DHT22;27364;49.026;8.712;2022-07-10T07:17:06;17.20;99.90
41678;DHT22;27364;49.026;8.712;2022-07-10T07:19:34;17.20;99.90
41678;DHT22;27364;49.026;8.712;2022-07-10T07:22:22;17.10;99.90
41678;DHT22;27364;49.026;8.712;2022-07-10T07:25:08;17.10;99.90
41678;DHT22;27364;49.026;8.712;2022-07-10T07:27:36;17.10;99.90
41678;DHT22;27364;49.026;8.712;2022-07-10T07:30:07;17.10;99.90
41678;DHT22;27364;49.026;8.712;2022-07-10T07:32:33;17.20;99.90
41678;DHT22;27364;49.026;8.712;2022-07-10T07:34:59;17.20;99.90
41678;DHT22;27364;49.026;8.712;2022-07-10T07:37:55;17.20;99.90
41678;DHT22;27364;49.026;8.712;2022-07-10T07:40:22;17.30;99.90
41678;DHT22;27364;49.026;8.712;2022-07-10T07:42:55;17.40;99.90
41678;DHT22;27364;49.026;8.712;2022-07-10T07:45:22;17.50;99.90
41678;DHT22;27364;49.026;8.712;2022-07-10T07:47:50;17.50;99.90
41678;DHT22;27364;49.026;8.712;2022-07-10T07:50:17;17.50;99.90
41678;DHT22;27364;49.026;8.712;2022-07-10T07:52:42;17.50;99.90
41678;DHT22;27364;49.026;8.712;2022-07-10T07:55:09;17.50;99.90
41678;DHT22;27364;49.026;8.712;2022-07-10T07:57:35;17.50;99.90
41678;DHT22;27364;49.026;8.712;2022-07-10T08:00:00;17.50;99.90
41678;DHT22;27364;49.026;8.712;2022-07-10T08:02:26;17.50;99.90
41678;DHT22;27364;49.026;8.712;2022-07-10T08:04:51;17.50;99.90
41678;DHT22;27364;49.026;8.712;2022-07-10T08:07:17;17.50;99.90
41678;DHT22;27364;49.026;8.712;2022-07-10T08:09:42;17.60;99.90
41678;DHT22;27364;49.026;8.712;2022-07-10T08:12:09;17.60;99.90
41678;DHT22;27364;49.026;8.712;2022-07-10T08:14:35;17.60;99.90
41678;DHT22;27364;49.026;8.712;2022-07-10T08:17:01;17.70;99.90
41678;DHT22;27364;49.026;8.712;2022-07-10T08:19:26;17.80;99.90
41678;DHT22;27364;49.026;8.712;2022-07-10T08:21:52;17.80;99.90
41678;DHT22;27364;49.026;8.712;2022-07-10T08:24:17;17.80;99.90
41678;DHT22;27364;49.026;8.712;2022-07-10T08:26:44;17.70;99.90
41678;DHT22;27364;49.026;8.712;2022-07-10T08:29:09;17.70;99.90
41678;DHT22;27364;49.026;8.712;2022-07-10T08:31:35;17.70;99.90
41678;DHT22;27364;49.026;8.712;2022-07-10T08:34:01;17.80;99.90
41678;DHT22;27364;49.026;8.712;2022-07-10T08:36:26;17.80;99.90
41678;DHT22;27364;49.026;8.712;2022-07-10T08:38:53;17.80;99.90
41678;DHT22;27364;49.026;8.712;2022-07-10T08:41:25;17.70;99.90
41678;DHT22;27364;49.026;8.712;2022-07-10T08:43:51;17.70;99.90
41678;DHT22;27364;49.026;8.712;2022-07-10T08:46:17;17.80;99.90
41678;DHT22;27364;49.026;8.712;2022-07-10T08:48:47;17.80;99.90
41678;DHT22;27364;49.026;8.712;2022-07-10T08:51:36;17.90;99.80
41678;DHT22;27364;49.026;8.712;2022-07-10T08:54:01;17.90;99.90
41678;DHT22;27364;49.026;8.712;2022-07-10T08:56:30;17.90;99.90
41678;DHT22;27364;49.026;8.712;2022-07-10T08:58:56;18.00;99.90
41678;DHT22;27364;49.026;8.712;2022-07-10T09:01:21;18.10;99.60
41678;DHT22;27364;49.026;8.712;2022-07-10T09:03:49;18.10;98.70
41678;DHT22;27364;49.026;8.712;2022-07-10T09:06:16;18.20;99.80
41678;DHT22;27364;49.026;8.712;2022-07-10T09:09:04;18.30;99.90
41678;DHT22;27364;49.026;8.712;2022-07-10T09:11:31;18.50;98.00
41678;DHT22;27364;49.026;8.712;2022-07-10T09:14:02;18.50;96.90
41678;DHT22;27364;49.026;8.712;2022-07-10T09:16:31;18.40;96.20
41678;DHT22;27364;49.026;8.712;2022-07-10T09:21:55;18.40;96.10
41678;DHT22;27364;49.026;8.712;2022-07-10T09:24:25;18.60;96.60
41678;DHT22;27364;49.026;8.712;2022-07-10T09:29:22;19.00;96.60
41678;DHT22;27364;49.026;8.712;2022-07-10T09:31:59;18.90;94.80
41678;DHT22;27364;49.026;8.712;2022-07-10T09:34:52;18.90;93.90
41678;DHT22;27364;49.026;8.712;2022-07-10T09:37:41;18.90;94.20
41678;DHT22;27364;49.026;8.712;2022-07-10T09:40:09;19.20;93.60
41678;DHT22;27364;49.026;8.712;2022-07-10T09:42:37;19.20;93.70
41678;DHT22;27364;49.026;8.712;2022-07-10T09:48:04;19.20;92.10
41678;DHT22;27364;49.026;8.712;2022-07-10T09:50:32;19.00;91.80
41678;DHT22;27364;49.026;8.712;2022-07-10T09:53:03;19.00;92.80
41678;DHT22;27364;49.026;8.712;2022-07-10T09:55:37;19.20;92.40
41678;DHT22;27364;49.026;8.712;2022-07-10T09:58:08;19.20;91.50
41678;DHT22;27364;49.026;8.712;2022-07-10T10:00:40;19.30;91.40
41678;DHT22;27364;49.026;8.712;2022-07-10T10:03:09;19.30;90.30
41678;DHT22;27364;49.026;8.712;2022-07-10T10:05:58;19.20;90.10
41678;DHT22;27364;49.026;8.712;2022-07-10T10:10:57;19.20;92.00
41678;DHT22;27364;49.026;8.712;2022-07-10T10:13:25;19.40;88.80
41678;DHT22;27364;49.026;8.712;2022-07-10T10:15:55;19.40;88.00
41678;DHT22;27364;49.026;8.712;2022-07-10T10:18:23;19.50;86.70
41678;DHT22;27364;49.026;8.712;2022-07-10T10:20:50;19.70;86.10
41678;DHT22;27364;49.026;8.712;2022-07-10T10:23:18;19.80;88.40
41678;DHT22;27364;49.026;8.712;2022-07-10T10:25:47;19.90;86.50
41678;DHT22;27364;49.026;8.712;2022-07-10T10:28:13;19.90;80.80
41678;DHT22;27364;49.026;8.712;2022-07-10T10:30:41;20.00;81.30
41678;DHT22;27364;49.026;8.712;2022-07-10T10:36:06;20.10;80.90
41678;DHT22;27364;49.026;8.712;2022-07-10T10:41:31;20.40;79.20
41678;DHT22;27364;49.026;8.712;2022-07-10T10:46:34;20.50;78.00
41678;DHT22;27364;49.026;8.712;2022-07-10T10:49:07;20.60;78.30
41678;DHT22;27364;49.026;8.712;2022-07-10T10:52:01;20.70;78.60
41678;DHT22;27364;49.026;8.712;2022-07-10T10:54:59;20.80;74.20
41678;DHT22;27364;49.026;8.712;2022-07-10T10:57:15;20.90;75.20
41678;DHT22;27364;49.026;8.712;2022-07-10T10:59:45;20.90;71.50
41678;DHT22;27364;49.026;8.712;2022-07-10T11:02:29;20.80;72.90
41678;DHT22;27364;49.026;8.712;2022-07-10T11:13:08;21.10;74.20
41678;DHT22;27364;49.026;8.712;2022-07-10T11:15:40;21.20;71.70
41678;DHT22;27364;49.026;8.712;2022-07-10T11:18:18;21.00;70.50
41678;DHT22;27364;49.026;8.712;2022-07-10T11:20:45;20.90;68.70
41678;DHT22;27364;49.026;8.712;2022-07-10T11:23:23;21.10;71.50
41678;DHT22;27364;49.026;8.712;2022-07-10T11:25:59;20.90;67.70
41678;DHT22;27364;49.026;8.712;2022-07-10T11:28:58;21.10;70.10
41678;DHT22;27364;49.026;8.712;2022-07-10T11:31:26;21.20;69.40
41678;DHT22;27364;49.026;8.712;2022-07-10T11:33:53;21.40;70.00
41678;DHT22;27364;49.026;8.712;2022-07-10T11:36:21;21.30;67.80
41678;DHT22;27364;49.026;8.712;2022-07-10T11:39:03;21.40;68.10
41678;DHT22;27364;49.026;8.712;2022-07-10T11:41:29;21.40;65.50
41678;DHT22;27364;49.026;8.712;2022-07-10T11:43:57;21.40;68.80
41678;DHT22;27364;49.026;8.712;2022-07-10T11:46:28;21.50;68.60
41678;DHT22;27364;49.026;8.712;2022-07-10T11:48:54;21.40;66.90
41678;DHT22;27364;49.026;8.712;2022-07-10T11:54:02;21.20;64.40
41678;DHT22;27364;49.026;8.712;2022-07-10T11:56:30;21.20;66.70
41678;DHT22;27364;49.026;8.712;2022-07-10T11:59:03;21.40;66.40
41678;DHT22;27364;49.026;8.712;2022-07-10T12:01:33;21.60;63.00
41678;DHT22;27364;49.026;8.712;2022-07-10T12:04:02;21.60;64.10
41678;DHT22;27364;49.026;8.712;2022-07-10T12:06:29;21.50;64.80
41678;DHT22;27364;49.026;8.712;2022-07-10T12:08:55;21.30;63.50
41678;DHT22;27364;49.026;8.712;2022-07-10T12:11:22;21.20;65.80
41678;DHT22;27364;49.026;8.712;2022-07-10T12:13:50;21.20;65.50
41678;DHT22;27364;49.026;8.712;2022-07-10T12:16:16;21.40;67.50
41678;DHT22;27364;49.026;8.712;2022-07-10T12:18:43;21.60;66.90
41678;DHT22;27364;49.026;8.712;2022-07-10T12:21:09;21.70;65.00
41678;DHT22;27364;49.026;8.712;2022-07-10T12:23:35;21.60;61.20
41678;DHT22;27364;49.026;8.712;2022-07-10T12:26:04;21.50;66.00
41678;DHT22;27364;49.026;8.712;2022-07-10T12:28:29;21.60;65.20
41678;DHT22;27364;49.026;8.712;2022-07-10T12:30:55;21.70;63.40
41678;DHT22;27364;49.026;8.712;2022-07-10T12:33:22;21.70;65.10
41678;DHT22;27364;49.026;8.712;2022-07-10T12:38:25;21.70;64.70
41678;DHT22;27364;49.026;8.712;2022-07-10T12:41:25;21.70;63.50
41678;DHT22;27364;49.026;8.712;2022-07-10T12:43:48;21.90;62.50
41678;DHT22;27364;49.026;8.712;2022-07-10T12:46:21;22.00;66.60
41678;DHT22;27364;49.026;8.712;2022-07-10T12:49:09;22.30;65.10
41678;DHT22;27364;49.026;8.712;2022-07-10T12:51:45;22.30;63.10
41678;DHT22;27364;49.026;8.712;2022-07-10T12:54:33;22.30;61.60
41678;DHT22;27364;49.026;8.712;2022-07-10T12:57:00;22.10;60.70
41678;DHT22;27364;49.026;8.712;2022-07-10T12:59:28;21.90;64.00
41678;DHT22;27364;49.026;8.712;2022-07-10T13:01:56;22.10;64.40
41678;DHT22;27364;49.026;8.712;2022-07-10T13:04:25;22.20;60.50
41678;DHT22;27364;49.026;8.712;2022-07-10T13:06:52;22.00;61.70
41678;DHT22;27364;49.026;8.712;2022-07-10T13:11:44;22.10;61.20
41678;DHT22;27364;49.026;8.712;2022-07-10T13:14:09;22.10;62.20
41678;DHT22;27364;49.026;8.712;2022-07-10T13:16:35;22.10;61.20
41678;DHT22;27364;49.026;8.712;2022-07-10T13:19:00;22.20;61.70
41678;DHT22;27364;49.026;8.712;2022-07-10T13:21:26;22.30;60.90
41678;DHT22;27364;49.026;8.712;2022-07-10T13:23:52;22.40;62.40
41678;DHT22;27364;49.026;8.712;2022-07-10T13:26:17;22.40;60.00
41678;DHT22;27364;49.026;8.712;2022-07-10T13:28:43;22.40;62.20
41678;DHT22;27364;49.026;8.712;2022-07-10T13:31:09;22.30;60.40
41678;DHT22;27364;49.026;8.712;2022-07-10T13:33:34;22.20;61.80
41678;DHT22;27364;49.026;8.712;2022-07-10T13:36:02;22.20;62.40
41678;DHT22;27364;49.026;8.712;2022-07-10T13:38:28;22.50;61.40
41678;DHT22;27364;49.026;8.712;2022-07-10T13:40:53;22.80;62.20
41678;DHT22;27364;49.026;8.712;2022-07-10T13:43:19;22.90;57.90
41678;DHT22;27364;49.026;8.712;2022-07-10T13:45:46;22.90;58.80
41678;DHT22;27364;49.026;8.712;2022-07-10T13:48:13;22.80;60.10
41678;DHT22;27364;49.026;8.712;2022-07-10T13:50:39;22.80;62.40
41678;DHT22;27364;49.026;8.712;2022-07-10T13:53:05;23.00;61.80
41678;DHT22;27364;49.026;8.712;2022-07-10T13:55:32;22.90;57.90
41678;DHT22;27364;49.026;8.712;2022-07-10T13:57:58;23.00;61.50
41678;DHT22;27364;49.026;8.712;2022-07-10T14:00:24;23.20;62.60
41678;DHT22;27364;49.026;8.712;2022-07-10T14:02:50;23.30;60.20
41678;DHT22;27364;49.026;8.712;2022-07-10T14:05:16;23.30;60.40
41678;DHT22;27364;49.026;8.712;2022-07-10T14:07:41;23.30;57.70
41678;DHT22;27364;49.026;8.712;2022-07-10T14:10:07;23.40;57.30
41678;DHT22;27364;49.026;8.712;2022-07-10T14:12:33;23.50;60.80
41678;DHT22;27364;49.026;8.712;2022-07-10T14:14:59;23.60;58.30
41678;DHT22;27364;49.026;8.712;2022-07-10T14:17:26;23.80;60.20
41678;DHT22;27364;49.026;8.712;2022-07-10T14:19:51;23.70;59.00
41678;DHT22;27364;49.026;8.712;2022-07-10T14:22:17;23.70;59.30
41678;DHT22;27364;49.026;8.712;2022-07-10T14:24:42;23.80;59.00
41678;DHT22;27364;49.026;8.712;2022-07-10T14:27:08;23.70;58.20
41678;DHT22;27364;49.026;8.712;2022-07-10T14:29:34;23.50;58.10
41678;DHT22;27364;49.026;8.712;2022-07-10T14:32:00;23.30;57.40
41678;DHT22;27364;49.026;8.712;2022-07-10T14:34:25;23.20;58.90
41678;DHT22;27364;49.026;8.712;2022-07-10T14:36:53;23.10;57.80
41678;DHT22;27364;49.026;8.712;2022-07-10T14:39:19;23.00;59.00
41678;DHT22;27364;49.026;8.712;2022-07-10T14:41:44;22.90;59.40
41678;DHT22;27364;49.026;8.712;2022-07-10T14:44:10;22.90;59.10
41678;DHT22;27364;49.026;8.712;2022-07-10T14:46:35;22.90;59.40
41678;DHT22;27364;49.026;8.712;2022-07-10T14:49:01;22.70;58.80
41678;DHT22;27364;49.026;8.712;2022-07-10T14:51:27;22.60;59.70
41678;DHT22;27364;49.026;8.712;2022-07-10T14:53:53;22.50;62.30
41678;DHT22;27364;49.026;8.712;2022-07-10T14:56:20;22.50;60.40
41678;DHT22;27364;49.026;8.712;2022-07-10T14:58:46;22.40;60.10
41678;DHT22;27364;49.026;8.712;2022-07-10T15:01:12;22.40;60.80
41678;DHT22;27364;49.026;8.712;2022-07-10T15:03:37;22.20;58.90
41678;DHT22;27364;49.026;8.712;2022-07-10T15:06:03;22.10;59.90
41678;DHT22;27364;49.026;8.712;2022-07-10T15:08:29;22.00;61.30
41678;DHT22;27364;49.026;8.712;2022-07-10T15:10:55;22.00;63.00
41678;DHT22;27364;49.026;8.712;2022-07-10T15:13:21;22.10;63.30
41678;DHT22;27364;49.026;8.712;2022-07-10T15:15:46;22.30;64.20
41678;DHT22;27364;49.026;8.712;2022-07-10T15:18:14;22.40;62.70
41678;DHT22;27364;49.026;8.712;2022-07-10T15:20:40;22.50;63.20
41678;DHT22;27364;49.026;8.712;2022-07-10T15:23:06;22.70;63.40
41678;DHT22;27364;49.026;8.712;2022-07-10T15:25:31;22.90;59.80
41678;DHT22;27364;49.026;8.712;2022-07-10T15:27:57;22.80;60.90
41678;DHT22;27364;49.026;8.712;2022-07-10T15:30:22;22.80;62.50
41678;DHT22;27364;49.026;8.712;2022-07-10T15:32:48;22.90;61.30
41678;DHT22;27364;49.026;8.712;2022-07-10T15:35:14;22.90;59.50
41678;DHT22;27364;49.026;8.712;2022-07-10T15:37:40;22.90;60.20
41678;DHT22;27364;49.026;8.712;2022-07-10T15:40:06;22.80;61.00
41678;DHT22;27364;49.026;8.712;2022-07-10T15:42:32;22.60;61.10
41678;DHT22;27364;49.026;8.712;2022-07-10T15:44:57;22.50;61.40
41678;DHT22;27364;49.026;8.712;2022-07-10T15:47:23;22.30;60.40
41678;DHT22;27364;49.026;8.712;2022-07-10T15:49:49;22.30;61.90
41678;DHT22;27364;49.026;8.712;2022-07-10T15:52:14;22.20;63.40
41678;DHT22;27364;49.026;8.712;2022-07-10T15:54:40;22.10;62.50
41678;DHT22;27364;49.026;8.712;2022-07-10T15:57:07;22.10;62.30
41678;DHT22;27364;49.026;8.712;2022-07-10T15:59:33;22.00;62.80
41678;DHT22;27364;49.026;8.712;2022-07-10T16:02:00;21.90;62.00
41678;DHT22;27364;49.026;8.712;2022-07-10T16:04:26;21.90;61.90
41678;DHT22;27364;49.026;8.712;2022-07-10T16:06:53;21.80;62.90
41678;DHT22;27364;49.026;8.712;2022-07-10T16:09:19;21.80;63.30
41678;DHT22;27364;49.026;8.712;2022-07-10T16:11:44;21.70;62.60
41678;DHT22;27364;49.026;8.712;2022-07-10T16:14:10;21.70;63.90
41678;DHT22;27364;49.026;8.712;2022-07-10T16:16:36;21.70;62.60
41678;DHT22;27364;49.026;8.712;2022-07-10T16:19:03;21.70;64.70
41678;DHT22;27364;49.026;8.712;2022-07-10T16:21:29;21.60;64.20
41678;DHT22;27364;49.026;8.712;2022-07-10T16:23:55;21.60;65.10